Time;durP1;ratioP1;P1;durP2;ratioP2;P2;SDS_P1;SDS_P2;PMS_P1;PMS_P2;Temp;Humidity;BMP_temperature;BMP_pressure;BME280_temperature;BME280_humidity;BME280_pressure;Samples;Min_cycle;Max_cycle;Signal;HPM_P1;HPM_P2
2022/01/12 00:00:29;;;;;;;24.83;10.32;;;;;;;-6.31;83.03;95327.13;5010043;28;20179;-61
2022/01/12 00:02:56;;;;;;;23.63;10.60;;;;;;;-6.18;83.53;95320.38;5009982;28;20033;-62
2022/01/12 00:05:23;;;;;;;25.08;11.38;;;;;;;-6.11;83.92;95324.38;5010155;28;20072;-62
2022/01/12 00:07:51;;;;;;;27.42;10.85;;;;;;;-5.98;83.65;95327.50;5009514;28;20406;-62
2022/01/12 00:10:20;;;;;;;24.00;10.20;;;;;;;-5.80;83.59;95326.03;5008857;28;20054;-62
2022/01/12 00:12:47;;;;;;;23.75;10.30;;;;;;;-5.66;83.42;95324.34;5009231;28;20046;-62
2022/01/12 00:15:15;;;;;;;25.67;9.87;;;;;;;-5.55;83.54;95327.72;5008319;28;20081;-62
2022/01/12 00:17:42;;;;;;;21.05;9.30;;;;;;;-5.47;84.00;95325.28;5009087;28;20042;-62
2022/01/12 00:20:10;;;;;;;20.38;9.10;;;;;;;-5.71;81.43;95327.06;5010031;28;20053;-62
2022/01/12 00:22:39;;;;;;;19.02;8.00;;;;;;;-5.84;81.12;95320.44;5009159;28;20052;-63
2022/01/12 00:25:24;;;;;;;20.27;8.75;;;;;;;-5.69;80.88;95320.34;5009777;28;20590;-62
2022/01/12 00:33:42;;;;;;;20.40;9.25;;;;;;;-5.58;82.86;95317.59;4986413;28;20050;-62
2022/01/12 00:36:09;;;;;;;20.40;8.82;;;;;;;-5.47;83.01;95316.44;4999663;28;20469;-62
2022/01/12 00:38:35;;;;;;;24.30;9.95;;;;;;;-5.41;84.07;95307.31;5007557;28;20402;-62
2022/01/12 00:41:02;;;;;;;20.17;9.20;;;;;;;-5.46;82.87;95310.81;5009817;28;20049;-62
2022/01/12 00:43:31;;;;;;;21.02;9.45;;;;;;;-5.42;82.99;95309.16;5008006;28;20618;-61
2022/01/12 00:45:58;;;;;;;22.75;9.38;;;;;;;-5.39;83.45;95313.19;5024174;28;20046;-62
2022/01/12 00:48:25;;;;;;;22.63;9.35;;;;;;;-5.44;83.04;95308.66;5009382;28;20410;-62
2022/01/12 00:50:52;;;;;;;25.35;9.98;;;;;;;-5.51;84.26;95313.53;5008325;28;20631;-62
2022/01/12 00:53:18;;;;;;;22.33;9.37;;;;;;;-5.67;82.36;95314.72;5009687;28;20056;-62
2022/01/12 00:55:45;;;;;;;21.33;9.68;;;;;;;-6.39;83.76;95317.81;5000000;28;20052;-62
2022/01/12 00:58:12;;;;;;;21.17;9.10;;;;;;;-5.92;83.17;95321.03;4999067;28;20058;-62
2022/01/12 01:00:39;;;;;;;19.63;8.48;;;;;;;-5.62;83.32;95322.69;4988824;28;20054;-62
2022/01/12 01:03:08;;;;;;;20.65;9.10;;;;;;;-5.55;82.61;95322.38;4989388;28;20055;-62
2022/01/12 01:05:35;;;;;;;26.60;10.90;;;;;;;-5.30;82.33;95332.09;4990931;28;20050;-61
2022/01/12 01:08:02;;;;;;;27.33;11.77;;;;;;;-5.14;82.66;95327.41;5007815;28;20060;-62
2022/01/12 01:12:56;;;;;;;25.30;10.20;;;;;;;-4.79;83.21;95330.84;5008841;28;20054;-62
2022/01/12 01:15:41;;;;;;;22.35;9.75;;;;;;;-4.62;83.32;95339.22;5009147;28;20054;-62
2022/01/12 01:26:23;;;;;;;19.85;8.80;;;;;;;-4.84;81.06;95347.75;5009033;28;20049;-62
2022/01/12 01:28:50;;;;;;;18.52;8.23;;;;;;;-4.70;84.09;95339.84;5007202;28;20046;-62
2022/01/12 01:31:19;;;;;;;18.03;8.13;;;;;;;-4.30;84.52;95345.84;5008847;28;20054;-62
2022/01/12 01:33:47;;;;;;;19.50;8.60;;;;;;;-4.11;83.14;95340.53;5008378;28;20057;-62
2022/01/12 01:36:15;;;;;;;29.48;11.00;;;;;;;-4.24;83.21;95342.81;5008025;28;20056;-62
2022/01/12 01:38:43;;;;;;;33.42;11.32;;;;;;;-4.06;82.78;95351.19;5008066;28;20034;-62
2022/01/12 01:41:10;;;;;;;30.00;11.48;;;;;;;-3.94;82.82;95340.84;5023449;28;20490;-62
2022/01/12 01:54:21;;;;;;;16.70;8.30;;;;;;;-3.51;81.28;95345.34;5012907;28;20054;-62
2022/01/12 01:56:48;;;;;;;18.50;8.70;;;;;;;-3.89;82.33;95348.03;5012292;28;20044;-62
2022/01/12 01:59:15;;;;;;;17.63;7.60;;;;;;;-3.98;83.33;95353.25;5012806;28;20052;-62
2022/01/12 02:01:41;;;;;;;15.98;7.50;;;;;;;-3.75;82.23;95342.75;5011999;28;20398;-63
2022/01/12 02:04:08;;;;;;;18.70;8.07;;;;;;;-3.66;82.20;95343.69;5028009;28;20160;-62
2022/01/12 02:06:36;;;;;;;16.23;7.65;;;;;;;-3.59;81.76;95344.13;5012219;28;20049;-61
2022/01/12 02:09:04;;;;;;;17.77;7.77;;;;;;;-3.64;81.54;95339.63;5043970;28;20037;-62
2022/01/12 02:11:31;;;;;;;14.70;7.07;;;;;;;-3.75;81.98;95335.50;5027181;28;20048;-62
2022/01/12 02:13:59;;;;;;;15.07;7.47;;;;;;;-3.55;81.01;95342.44;5012165;28;20049;-62
2022/01/12 02:16:34;;;;;;;15.40;7.40;;;;;;;-3.44;80.50;95343.91;5012513;28;20368;-62
2022/01/12 02:40:39;;;;;;;17.83;8.85;;;;;;;-3.90;82.19;95336.50;5011472;28;20042;-61
2022/01/12 02:53:39;;;;;;;18.33;9.43;;;;;;;-4.21;83.22;95365.56;5011186;28;20046;-61
2022/01/12 02:56:16;;;;;;;17.33;7.63;;;;;;;-3.96;82.57;95371.69;5010102;28;20050;-62
2022/01/12 02:58:45;;;;;;;18.15;8.80;;;;;;;-4.05;82.72;95361.63;5009642;28;20092;-62
2022/01/12 03:03:47;;;;;;;16.90;7.55;;;;;;;-3.81;82.10;95358.91;5010876;28;20049;-62
2022/01/12 03:06:18;;;;;;;15.10;7.20;;;;;;;-3.68;81.38;95365.44;5011525;28;20048;-62
2022/01/12 03:08:46;;;;;;;16.42;7.45;;;;;;;-3.76;81.62;95366.09;5010567;28;20064;-62
2022/01/12 03:11:15;;;;;;;17.52;8.73;;;;;;;-4.16;82.07;95370.88;5010045;28;20050;-62
2022/01/12 03:13:42;;;;;;;19.33;9.83;;;;;;;-4.29;82.86;95368.88;5010535;28;20054;-62
2022/01/12 03:16:18;;;;;;;20.00;8.27;;;;;;;-4.07;82.49;95373.72;5011169;28;20050;-62
2022/01/12 03:18:50;;;;;;;19.80;10.23;;;;;;;-4.36;83.50;95368.44;5010749;28;20045;-62
2022/01/12 03:21:21;;;;;;;17.88;8.23;;;;;;;-4.31;83.40;95366.47;5011287;28;20049;-62
2022/01/12 03:23:50;;;;;;;16.45;8.10;;;;;;;-3.91;81.94;95369.75;5010743;28;20046;-63
2022/01/12 03:26:17;;;;;;;17.20;8.30;;;;;;;-3.74;81.64;95360.41;5003691;28;20041;-62
2022/01/12 03:28:52;;;;;;;18.45;9.27;;;;;;;-4.17;81.72;95366.59;5010264;28;20532;-62
2022/01/12 03:31:23;;;;;;;17.67;8.23;;;;;;;-4.36;82.64;95358.50;5010862;28;20048;-61
2022/01/12 03:33:56;;;;;;;21.17;9.93;;;;;;;-4.42;82.07;95367.69;5010272;28;20045;-62
2022/01/12 03:38:51;;;;;;;17.57;8.30;;;;;;;-4.55;83.26;95366.47;5010021;28;20438;-62
2022/01/12 03:41:18;;;;;;;20.52;9.52;;;;;;;-4.65;84.27;95356.69;5011067;28;20041;-62
2022/01/12 03:43:50;;;;;;;17.70;8.80;;;;;;;-4.73;84.39;95356.47;5010158;28;20659;-62
2022/01/12 03:46:19;;;;;;;21.55;11.10;;;;;;;-4.73;84.57;95357.25;5010847;28;20045;-62
2022/01/12 03:48:45;;;;;;;20.45;9.65;;;;;;;-4.68;84.11;95349.19;5009861;28;20048;-62
2022/01/12 03:51:12;;;;;;;15.67;6.90;;;;;;;-4.43;83.35;95345.47;5010701;28;20075;-62
2022/01/12 03:53:39;;;;;;;21.63;8.60;;;;;;;-4.67;83.73;95347.31;5010115;28;20545;-61
2022/01/12 03:56:06;;;;;;;25.67;11.02;;;;;;;-4.50;83.65;95362.97;5008981;28;20248;-62
2022/01/12 03:58:33;;;;;;;19.60;8.05;;;;;;;-4.31;82.75;95360.31;5009875;28;20050;-61
2022/01/12 04:01:00;;;;;;;17.75;7.88;;;;;;;-4.27;81.78;95358.66;5010299;28;20048;-62
2022/01/12 04:03:29;;;;;;;16.00;7.47;;;;;;;-4.22;82.09;95369.34;5008764;28;20052;-61
2022/01/12 04:08:40;;;;;;;18.77;8.23;;;;;;;-4.22;81.94;95363.97;5009422;28;20506;-62
2022/01/12 04:11:07;;;;;;;17.60;7.97;;;;;;;-4.09;82.00;95363.28;5009843;28;20072;-62
2022/01/12 04:13:34;;;;;;;19.40;9.13;;;;;;;-4.21;81.35;95369.03;5009776;28;20061;-62
2022/01/12 04:16:05;;;;;;;21.37;8.37;;;;;;;-4.09;81.41;95371.31;5009948;28;20262;-62
2022/01/12 04:18:34;;;;;;;18.23;7.68;;;;;;;-4.25;82.33;95378.72;5041436;28;20111;-62
2022/01/12 04:21:03;;;;;;;18.75;8.40;;;;;;;-4.25;81.25;95388.66;5009851;28;20044;-62
2022/01/12 04:23:30;;;;;;;18.20;8.43;;;;;;;-4.37;81.55;95391.75;5009525;28;20042;-62
2022/01/12 04:25:59;;;;;;;20.15;9.05;;;;;;;-4.44;82.92;95397.44;5007132;28;20053;-62
2022/01/12 04:28:28;;;;;;;18.57;8.67;;;;;;;-4.51;83.13;95388.94;5010021;28;20034;-62
2022/01/12 04:30:57;;;;;;;20.95;9.35;;;;;;;-4.41;82.90;95390.72;5008912;28;20632;-62
2022/01/12 04:33:24;;;;;;;21.85;9.25;;;;;;;-4.14;82.31;95379.44;5009909;28;20042;-62
2022/01/12 04:35:54;;;;;;;22.35;9.10;;;;;;;-4.11;82.18;95389.56;5007650;28;20050;-62
2022/01/12 04:38:23;;;;;;;20.80;9.25;;;;;;;-4.30;82.41;95397.56;5008334;28;20049;-62
2022/01/12 04:40:50;;;;;;;22.03;10.17;;;;;;;-4.44;82.43;95394.75;5024036;28;20064;-63
2022/01/12 04:43:19;;;;;;;18.10;8.35;;;;;;;-4.25;81.90;95399.38;5009749;28;20042;-62
2022/01/12 04:50:54;;;;;;;19.52;8.95;;;;;;;-4.33;82.07;95395.44;5007700;28;20048;-62
2022/01/12 04:53:22;;;;;;;23.97;10.73;;;;;;;-4.35;81.72;95400.28;5008335;28;20517;-62
2022/01/12 04:55:50;;;;;;;24.33;9.90;;;;;;;-4.64;82.81;95397.66;5008993;28;20052;-63
2022/01/12 04:58:18;;;;;;;21.33;9.30;;;;;;;-4.64;83.84;95408.38;5009557;28;20049;-62
2022/01/12 05:00:48;;;;;;;20.10;10.25;;;;;;;-5.07;84.08;95406.31;5007601;28;20119;-62
2022/01/12 05:06:36;;;;;;;22.93;8.53;;;;;;;-4.68;83.85;95399.28;5008364;28;20049;-62
2022/01/12 05:14:24;;;;;;;20.70;9.15;;;;;;;-4.56;83.07;95409.63;5009460;28;20045;-62
2022/01/12 05:16:52;;;;;;;21.15;8.88;;;;;;;-4.49;82.82;95416.22;4988147;28;20046;-62
2022/01/12 05:19:19;;;;;;;19.50;8.83;;;;;;;-4.41;82.28;95425.53;5004419;28;20050;-62
2022/01/12 05:21:46;;;;;;;20.55;8.88;;;;;;;-4.25;82.01;95436.91;4988609;28;20100;-62
2022/01/12 05:24:13;;;;;;;24.30;10.98;;;;;;;-4.09;81.89;95432.19;4970275;28;20384;-62
2022/01/12 05:26:40;;;;;;;20.17;9.23;;;;;;;-4.14;81.90;95434.94;4981723;28;20353;-62
2022/01/12 05:29:07;;;;;;;19.13;8.90;;;;;;;-4.13;81.39;95434.63;4989231;28;20069;-62
2022/01/12 05:31:34;;;;;;;22.07;9.17;;;;;;;-3.99;80.83;95440.13;4988893;28;20048;-62
2022/01/12 05:34:01;;;;;;;21.10;9.95;;;;;;;-3.84;80.15;95437.28;4988083;28;20051;-62
2022/01/12 05:36:31;;;;;;;22.33;9.80;;;;;;;-3.83;80.25;95438.06;4988902;28;20046;-61
2022/01/12 05:38:59;;;;;;;19.13;9.05;;;;;;;-4.32;80.84;95444.50;4987570;28;20531;-62
2022/01/12 05:41:27;;;;;;;19.02;8.57;;;;;;;-4.07;81.20;95454.94;4989411;28;20055;-62
2022/01/12 05:43:54;;;;;;;21.47;9.33;;;;;;;-3.90;80.36;95472.50;4987977;28;20049;-62
2022/01/12 05:46:25;;;;;;;26.42;10.82;;;;;;;-3.92;80.33;95478.13;4989124;28;20062;-62
2022/01/12 05:51:44;;;;;;;44.50;15.90;;;;;;;-4.26;81.03;95486.25;5008291;28;20049;-62
2022/01/12 05:54:10;;;;;;;32.58;12.98;;;;;;;-4.01;80.86;95477.16;5039625;28;20054;-62
2022/01/12 05:56:38;;;;;;;30.00;11.30;;;;;;;-4.04;81.12;95480.41;5008080;28;20053;-62
2022/01/12 05:59:05;;;;;;;30.05;11.52;;;;;;;-3.93;80.53;95489.94;5008285;28;20064;-62
2022/01/12 06:01:31;;;;;;;29.70;11.70;;;;;;;-3.83;80.29;95487.13;5023066;28;20061;-61
2022/01/12 06:03:58;;;;;;;28.15;10.35;;;;;;;-4.04;80.85;95491.94;5008565;28;20045;-62
2022/01/12 06:06:25;;;;;;;24.77;11.60;;;;;;;-4.15;80.18;95482.38;5008669;28;20046;-62
2022/01/12 06:08:52;;;;;;;20.00;9.07;;;;;;;-4.40;80.75;95480.75;4978812;28;20042;-62
2022/01/12 06:11:19;;;;;;;23.20;10.40;;;;;;;-4.10;80.65;95474.28;5004179;28;20380;-63
2022/01/12 06:13:45;;;;;;;27.25;10.95;;;;;;;-3.94;79.50;95487.53;5023346;28;20061;-63
2022/01/12 06:16:12;;;;;;;20.98;9.63;;;;;;;-4.36;80.73;95499.75;4988911;28;20108;-63
2022/01/12 06:18:39;;;;;;;19.38;9.05;;;;;;;-4.05;79.99;95502.94;4988465;28;20488;-62
2022/01/12 06:21:06;;;;;;;23.87;9.63;;;;;;;-4.24;80.04;95498.28;4988799;28;20052;-62
2022/01/12 06:23:33;;;;;;;20.08;8.85;;;;;;;-4.06;79.33;95493.31;4988406;28;20138;-62
2022/01/12 06:25:59;;;;;;;21.58;9.20;;;;;;;-4.04;79.59;95494.59;4987213;28;20065;-62
2022/01/12 06:31:11;;;;;;;21.38;8.75;;;;;;;-3.91;78.93;95489.66;4987465;28;20050;-62
2022/01/12 06:33:48;;;;;;;19.63;8.67;;;;;;;-3.78;78.85;95494.34;4991456;28;20042;-62
2022/01/12 06:36:21;;;;;;;19.65;9.00;;;;;;;-3.87;78.59;95499.50;4992313;28;20042;-62
2022/01/12 06:38:48;;;;;;;21.15;9.00;;;;;;;-3.79;78.51;95505.34;4991668;28;20050;-62
2022/01/12 06:41:16;;;;;;;21.80;9.32;;;;;;;-4.23;79.90;95501.75;4991841;28;20130;-62
2022/01/12 06:43:43;;;;;;;23.45;11.07;;;;;;;-4.71;81.52;95505.13;4991751;28;20050;-62
2022/01/12 06:46:11;;;;;;;22.53;10.67;;;;;;;-4.61;82.13;95514.94;4991769;28;20050;-63
2022/01/12 06:48:38;;;;;;;20.77;9.10;;;;;;;-4.74;81.65;95520.94;4991679;28;20046;-62
2022/01/12 06:51:05;;;;;;;21.17;8.60;;;;;;;-5.02;82.65;95518.69;4991677;28;20046;-62
2022/01/12 06:53:32;;;;;;;19.80;8.30;;;;;;;-4.92;83.03;95528.56;4991803;28;20051;-61
2022/01/12 06:56:00;;;;;;;19.42;8.93;;;;;;;-4.71;82.60;95531.91;4991914;28;20053;-62
2022/01/12 06:58:27;;;;;;;18.50;8.13;;;;;;;-4.59;82.02;95528.06;4991342;28;20050;-61
2022/01/12 07:00:54;;;;;;;19.63;8.85;;;;;;;-4.69;81.82;95529.75;4992017;28;20042;-62
2022/01/12 07:03:21;;;;;;;22.90;10.32;;;;;;;-4.62;81.89;95530.22;5006433;28;20050;-62
2022/01/12 07:05:47;;;;;;;21.58;10.38;;;;;;;-4.39;81.39;95527.09;4991469;28;20042;-62
2022/01/12 07:08:15;;;;;;;19.42;8.57;;;;;;;-4.28;80.04;95531.31;4991728;28;20050;-62
2022/01/12 07:10:41;;;;;;;21.63;8.77;;;;;;;-4.60;81.17;95529.94;4990816;28;20049;-62
2022/01/12 07:13:13;;;;;;;22.70;8.88;;;;;;;-4.43;81.66;95537.56;4991519;28;20042;-62
2022/01/12 07:15:41;;;;;;;18.88;8.45;;;;;;;-4.27;80.28;95543.59;5006680;28;20060;-61
2022/01/12 07:18:08;;;;;;;20.70;9.55;;;;;;;-4.62;81.90;95557.00;5010976;28;20054;-62
2022/01/12 07:20:35;;;;;;;21.92;10.15;;;;;;;-4.78;82.05;95550.16;5004439;28;20046;-62
2022/01/12 07:23:03;;;;;;;22.57;10.67;;;;;;;-4.88;83.30;95566.28;5009204;28;20127;-62
2022/01/12 07:25:30;;;;;;;22.02;9.57;;;;;;;-4.52;82.21;95566.84;5010740;28;20049;-62
2022/01/12 07:27:57;;;;;;;20.95;9.32;;;;;;;-4.52;81.94;95564.19;5042449;28;20042;-62
2022/01/12 07:30:24;;;;;;;20.38;8.40;;;;;;;-4.48;81.92;95559.84;5010984;28;20052;-62
2022/01/12 07:32:52;;;;;;;19.30;8.20;;;;;;;-4.53;81.45;95561.75;5010631;28;20034;-62
2022/01/12 07:35:19;;;;;;;20.60;9.93;;;;;;;-4.67;81.89;95565.09;5010422;28;20054;-62
2022/01/12 07:37:46;;;;;;;22.55;11.30;;;;;;;-4.98;82.94;95572.50;5010545;28;20050;-62
2022/01/12 07:40:13;;;;;;;22.67;11.88;;;;;;;-5.08;83.72;95568.00;5010513;28;20076;-62
2022/01/12 07:42:40;;;;;;;23.63;11.30;;;;;;;-5.15;84.12;95575.53;5001758;28;20054;-62
2022/01/12 07:45:07;;;;;;;22.30;10.45;;;;;;;-4.90;83.97;95579.16;4989465;28;20042;-62
2022/01/12 07:47:34;;;;;;;22.10;8.73;;;;;;;-4.50;82.57;95580.78;5020887;28;20077;-61
2022/01/12 07:50:03;;;;;;;19.98;8.95;;;;;;;-4.21;81.27;95572.75;4992207;28;20081;-62
2022/01/12 07:52:30;;;;;;;20.00;8.60;;;;;;;-4.25;81.13;95585.13;4989901;28;20403;-61
2022/01/12 07:54:58;;;;;;;26.75;9.82;;;;;;;-4.06;80.87;95585.25;4990536;28;20479;-62
2022/01/12 07:57:26;;;;;;;21.00;9.50;;;;;;;-3.87;80.40;95589.91;4990717;28;20042;-61
2022/01/12 07:59:53;;;;;;;20.63;9.83;;;;;;;-3.94;80.01;95590.25;4989765;28;20341;-62
2022/01/12 08:02:21;;;;;;;25.35;11.05;;;;;;;-3.84;79.80;95598.19;4993209;28;20031;-62
2022/01/12 08:04:51;;;;;;;20.80;9.40;;;;;;;-3.79;78.52;95580.47;5020510;28;20046;-62
2022/01/12 08:07:18;;;;;;;19.85;8.52;;;;;;;-4.02;79.28;95586.28;5006049;28;20482;-62
2022/01/12 08:09:45;;;;;;;23.02;9.50;;;;;;;-3.76;78.90;95596.78;5009598;28;20068;-61
2022/01/12 08:12:12;;;;;;;18.97;9.03;;;;;;;-3.73;78.15;95611.50;5010308;28;20123;-62
2022/01/12 08:14:39;;;;;;;22.88;9.93;;;;;;;-3.52;78.05;95598.69;5009891;28;20071;-62
2022/01/12 08:17:06;;;;;;;22.52;9.55;;;;;;;-3.54;78.04;95596.31;5010225;28;20053;-62
2022/01/12 08:19:37;;;;;;;19.98;8.73;;;;;;;-3.40;76.83;95596.44;5009803;28;20046;-62
2022/01/12 08:22:05;;;;;;;20.58;9.82;;;;;;;-3.52;77.37;95602.19;5010034;28;20061;-62
2022/01/12 08:24:31;;;;;;;20.13;9.13;;;;;;;-3.43;76.92;95605.84;5009762;28;20050;-61
2022/01/12 08:27:06;;;;;;;24.85;10.40;;;;;;;-3.26;77.02;95621.50;5009839;28;20062;-62
2022/01/12 08:29:33;;;;;;;25.25;11.05;;;;;;;-3.13;76.01;95613.84;5008975;28;20053;-61
2022/01/12 08:32:00;;;;;;;21.02;9.23;;;;;;;-3.73;77.17;95606.16;5009595;28;20081;-62
2022/01/12 08:34:28;;;;;;;20.50;8.90;;;;;;;-3.30;77.09;95611.59;5009546;28;20056;-60
2022/01/12 08:36:54;;;;;;;30.13;11.10;;;;;;;-3.19;76.17;95631.09;5008458;28;20442;-62
2022/01/12 08:39:21;;;;;;;26.60;11.70;;;;;;;-3.11;76.59;95625.09;5009976;28;20415;-62
2022/01/12 08:41:51;;;;;;;20.77;9.75;;;;;;;-3.34;76.30;95632.06;5009522;28;20048;-62
2022/01/12 08:44:35;;;;;;;22.83;10.00;;;;;;;-3.44;77.83;95614.97;5009530;28;20100;-62
2022/01/12 08:47:02;;;;;;;24.63;12.35;;;;;;;-4.08;78.70;95616.13;5009537;28;20042;-62
2022/01/12 08:49:29;;;;;;;23.20;10.40;;;;;;;-3.68;77.70;95606.09;5009146;28;20054;-62
2022/01/12 08:51:56;;;;;;;25.67;12.13;;;;;;;-3.13;76.18;95601.22;5009544;28;20050;-62
2022/01/12 08:54:23;;;;;;;28.02;12.00;;;;;;;-3.03;75.34;95606.47;5009422;28;20056;-62
2022/01/12 08:56:50;;;;;;;22.17;9.63;;;;;;;-3.44;76.99;95603.44;5008373;28;20068;-61
2022/01/12 08:59:17;;;;;;;23.23;10.50;;;;;;;-3.74;78.25;95596.50;5007796;28;20046;-62
2022/01/12 09:01:44;;;;;;;25.77;11.03;;;;;;;-3.66;78.37;95601.25;5009142;28;20099;-62
2022/01/12 09:04:12;;;;;;;24.40;10.98;;;;;;;-2.84;76.88;95601.13;5009169;28;20072;-62
2022/01/12 09:06:38;;;;;;;31.98;14.20;;;;;;;-1.96;74.22;95599.84;5007274;28;20042;-60
2022/01/12 09:09:05;;;;;;;46.78;18.98;;;;;;;-0.37;68.33;95605.66;5009187;28;20052;-61
2022/01/12 09:11:32;;;;;;;25.80;12.32;;;;;;;-0.36;66.25;95619.94;5008932;28;20195;-60
2022/01/12 09:13:59;;;;;;;24.00;11.07;;;;;;;-1.72;69.99;95619.34;5040823;28;20038;-61
2022/01/12 09:16:26;;;;;;;22.20;11.32;;;;;;;-1.77;70.45;95624.00;5009214;28;20061;-61
2022/01/12 09:18:52;;;;;;;26.15;12.70;;;;;;;-1.79;71.12;95616.25;5008410;28;20682;-60
2022/01/12 09:21:19;;;;;;;30.77;13.07;;;;;;;-1.66;70.25;95612.78;5008970;28;20049;-60
2022/01/12 09:23:48;;;;;;;26.33;12.25;;;;;;;-2.15;71.32;95616.00;5007458;28;20104;-61
2022/01/12 09:26:15;;;;;;;24.93;12.20;;;;;;;-2.62;72.97;95614.00;5002857;28;20046;-60
2022/01/12 09:28:42;;;;;;;40.92;19.55;;;;;;;-1.98;71.81;95610.09;4994950;28;20050;-60
2022/01/12 09:31:09;;;;;;;28.80;12.45;;;;;;;-2.34;72.28;95619.50;4987874;28;20050;-61
2022/01/12 09:33:36;;;;;;;27.73;11.90;;;;;;;-2.72;73.05;95618.69;4989007;28;20054;-60
2022/01/12 09:36:03;;;;;;;24.13;11.45;;;;;;;-2.88;74.01;95616.22;4988755;28;20046;-61
2022/01/12 09:38:30;;;;;;;24.97;10.77;;;;;;;-2.91;74.00;95624.84;4989125;28;20066;-60
2022/01/12 09:40:57;;;;;;;29.27;12.38;;;;;;;-2.81;74.53;95635.47;4989196;28;20034;-61
2022/01/12 09:43:33;;;;;;;30.60;13.82;;;;;;;-3.23;74.41;95653.13;4988478;28;20072;-60
2022/01/12 09:46:01;;;;;;;27.23;12.27;;;;;;;-3.04;75.53;95645.16;4989351;28;20064;-61
2022/01/12 09:48:33;;;;;;;29.45;12.30;;;;;;;-2.76;75.22;95639.97;4994831;28;20050;-61
2022/01/12 09:51:04;;;;;;;25.87;11.63;;;;;;;-1.94;71.97;95630.75;5008877;28;20041;-61
2022/01/12 09:53:33;;;;;;;23.38;10.32;;;;;;;-2.22;71.36;95627.94;5008370;28;20185;-61
2022/01/12 09:56:03;;;;;;;30.90;13.25;;;;;;;-1.58;70.29;95626.66;5008826;28;20046;-62
2022/01/12 09:58:33;;;;;;;36.65;14.57;;;;;;;-0.75;68.15;95622.13;5006862;28;20521;-61
2022/01/12 10:01:01;;;;;;;29.77;13.25;;;;;;;-0.15;66.98;95614.91;5008908;28;20141;-61
2022/01/12 10:03:32;;;;;;;24.20;12.80;;;;;;;-1.62;68.52;95611.09;5008374;28;20515;-61
2022/01/12 10:06:00;;;;;;;24.77;11.52;;;;;;;-1.16;67.85;95617.53;5008295;28;20042;-62
2022/01/12 10:08:35;;;;;;;23.92;12.40;;;;;;;0.34;64.65;95616.69;5010711;28;20052;-59
2022/01/12 10:11:08;;;;;;;33.08;14.40;;;;;;;0.87;61.45;95620.47;5012664;28;20042;-62
2022/01/12 10:13:37;;;;;;;27.55;13.50;;;;;;;-0.19;64.56;95624.72;5011842;28;20487;-61
2022/01/12 10:16:16;;;;;;;21.20;11.23;;;;;;;-0.47;66.06;95627.47;5012452;28;20054;-61
2022/01/12 10:18:48;;;;;;;24.42;12.02;;;;;;;1.43;61.79;95633.53;5011956;28;20050;-61
2022/01/12 10:21:37;;;;;;;22.02;11.82;;;;;;;2.52;56.07;95622.56;5012250;28;20050;-62
2022/01/12 10:24:09;;;;;;;28.58;13.50;;;;;;;5.54;50.67;95618.16;5011729;28;20835;-62
2022/01/12 10:26:39;;;;;;;27.08;13.00;;;;;;;6.72;46.08;95629.03;5008943;28;20042;-63
2022/01/12 10:29:12;;;;;;;21.47;11.73;;;;;;;9.94;40.47;95614.19;5012299;28;20046;-63
2022/01/12 10:31:46;;;;;;;25.08;12.48;;;;;;;8.20;40.83;95619.69;5011830;28;20075;-63
2022/01/12 10:34:29;;;;;;;21.15;12.20;;;;;;;6.93;42.94;95612.41;5012038;28;20429;-63
2022/01/12 10:36:57;;;;;;;22.20;13.07;;;;;;;6.37;43.53;95605.06;5011607;28;20619;-62
2022/01/12 10:39:26;;;;;;;20.83;11.63;;;;;;;4.71;46.87;95606.53;5012239;28;20048;-63
2022/01/12 10:41:58;;;;;;;19.13;11.97;;;;;;;5.46;46.00;95610.91;5011270;28;21513;-62
2022/01/12 10:44:30;;;;;;;19.00;11.35;;;;;;;5.51;45.65;95618.84;5012098;28;20045;-63
2022/01/12 10:47:17;;;;;;;20.40;12.30;;;;;;;4.06;48.71;95611.59;5011314;28;20925;-62
2022/01/12 10:50:06;;;;;;;21.17;11.98;;;;;;;7.00;43.39;95628.19;5010013;28;20042;-62
2022/01/12 10:52:39;;;;;;;22.55;11.93;;;;;;;8.88;40.22;95628.50;5010274;28;20510;-62
2022/01/12 10:55:13;;;;;;;21.00;12.50;;;;;;;8.92;37.61;95632.09;5012073;28;20053;-62
2022/01/12 10:57:44;;;;;;;20.15;12.98;;;;;;;6.35;43.32;95631.88;5011793;28;20045;-62
2022/01/12 11:00:21;;;;;;;20.40;12.98;;;;;;;4.97;46.59;95646.25;5011720;28;20050;-62
2022/01/12 11:02:50;;;;;;;21.83;12.93;;;;;;;4.33;48.29;95640.16;5011434;28;20068;-62
2022/01/12 11:05:20;;;;;;;22.38;12.75;;;;;;;4.72;48.13;95618.19;5011583;28;20057;-63
2022/01/12 11:07:48;;;;;;;25.13;12.97;;;;;;;8.12;41.09;95612.47;4991764;28;20054;-62
2022/01/12 11:10:29;;;;;;;19.55;12.10;;;;;;;10.67;36.11;95612.03;4991272;28;20046;-67
2022/01/12 11:12:55;;;;;;;19.15;12.00;;;;;;;9.46;36.09;95608.38;4991150;28;21488;-61
2022/01/12 11:15:22;;;;;;;21.00;12.50;;;;;;;6.94;41.93;95610.47;4991679;28;20046;-62
2022/01/12 11:17:52;;;;;;;17.20;11.73;;;;;;;10.97;35.16;95601.00;4991436;28;20073;-62
2022/01/12 11:20:25;;;;;;;17.20;12.00;;;;;;;12.07;32.33;95583.03;4990527;28;20125;-62
2022/01/12 11:23:09;;;;;;;20.50;12.80;;;;;;;9.85;35.62;95589.00;4990948;28;20645;-62
2022/01/12 11:25:50;;;;;;;17.65;12.50;;;;;;;11.36;33.81;95586.81;4993188;28;20052;-62
2022/01/12 11:28:19;;;;;;;19.88;13.10;;;;;;;12.02;31.98;95582.63;5005354;28;20080;-62
2022/01/12 11:30:50;;;;;;;20.83;13.55;;;;;;;12.03;31.23;95584.97;5010763;28;20561;-62
2022/01/12 11:33:33;;;;;;;21.73;14.03;;;;;;;9.17;34.21;95608.66;5010848;28;20115;-62
2022/01/12 11:36:10;;;;;;;25.13;13.38;;;;;;;9.37;35.09;95609.41;5010467;28;20045;-63
2022/01/12 11:38:38;;;;;;;22.25;13.15;;;;;;;9.88;33.88;95610.19;5009357;28;20054;-62
2022/01/12 11:41:35;;;;;;;17.33;12.73;;;;;;;9.41;35.07;95598.50;5010966;28;20046;-62
2022/01/12 11:44:17;;;;;;;19.73;13.23;;;;;;;8.11;37.88;95595.28;5007837;28;21849;-63
2022/01/12 11:46:49;;;;;;;17.77;12.20;;;;;;;12.17;31.82;95593.34;5010548;28;20374;-63
2022/01/12 11:49:39;;;;;;;18.70;12.18;;;;;;;13.62;28.80;95584.28;5010489;28;20050;-62
2022/01/12 11:52:23;;;;;;;19.75;14.00;;;;;;;8.30;37.20;95590.97;5010172;28;20501;-62
2022/01/12 11:54:53;;;;;;;20.98;13.77;;;;;;;12.06;30.55;95578.72;5010503;28;20037;-62
2022/01/12 11:57:34;;;;;;;21.40;12.93;;;;;;;13.27;29.75;95580.31;5009180;28;20054;-63
2022/01/12 12:00:10;;;;;;;19.17;13.00;;;;;;;12.97;29.76;95586.16;5010159;28;20627;-62
2022/01/12 12:02:41;;;;;;;20.30;13.65;;;;;;;11.06;31.51;95589.69;5010241;28;20053;-62
2022/01/12 12:05:29;;;;;;;19.65;15.38;;;;;;;5.12;42.99;95588.44;5010856;28;20052;-62
2022/01/12 12:08:02;;;;;;;23.40;15.95;;;;;;;4.04;46.74;95583.97;4990244;28;20057;-62
2022/01/12 12:10:34;;;;;;;20.02;14.32;;;;;;;7.72;40.24;95567.09;4990372;28;20053;-61
2022/01/12 12:13:02;;;;;;;19.63;14.23;;;;;;;3.87;47.53;95570.53;4990997;28;20038;-62
2022/01/12 12:15:29;;;;;;;19.40;13.30;;;;;;;8.22;39.36;95561.91;5005100;28;20050;-61
2022/01/12 12:18:04;;;;;;;25.83;14.88;;;;;;;6.31;41.60;95571.00;4990616;28;20042;-62
2022/01/12 12:20:32;;;;;;;25.70;14.60;;;;;;;4.68;45.24;95573.78;4990236;28;20052;-62
2022/01/12 12:22:59;;;;;;;25.92;15.35;;;;;;;5.91;43.82;95577.25;4989407;28;20048;-62
2022/01/12 12:25:28;;;;;;;30.07;19.60;;;;;;;7.65;40.31;95562.25;4989029;28;20064;-62
2022/01/12 12:28:01;;;;;;;24.38;15.13;;;;;;;6.64;41.11;95572.69;4989600;28;20670;-62
2022/01/12 12:30:31;;;;;;;25.75;14.73;;;;;;;3.80;48.01;95577.31;4990019;28;20046;-61
2022/01/12 12:33:06;;;;;;;39.67;19.90;;;;;;;3.44;49.35;95574.34;4990569;28;20034;-61
2022/01/12 12:35:34;;;;;;;32.40;16.65;;;;;;;2.73;52.03;95560.31;4989708;28;20080;-61
2022/01/12 12:38:04;;;;;;;27.13;13.77;;;;;;;-0.24;61.53;95571.69;4990537;28;20049;-61
2022/01/12 12:40:37;;;;;;;29.20;15.73;;;;;;;-1.08;64.43;95571.03;4988425;28;20053;-60
2022/01/12 12:43:21;;;;;;;25.80;13.27;;;;;;;-0.70;65.08;95567.31;4990430;28;20041;-61
2022/01/12 12:46:02;;;;;;;28.58;13.88;;;;;;;-1.17;66.33;95572.84;4990134;28;20389;-61
2022/01/12 12:48:31;;;;;;;26.73;13.52;;;;;;;-0.81;65.80;95570.19;4995802;28;20050;-60
2022/01/12 12:51:14;;;;;;;27.37;13.43;;;;;;;-0.86;65.64;95564.94;5009833;28;20045;-61
2022/01/12 12:53:47;;;;;;;29.58;12.32;;;;;;;-0.57;64.72;95566.47;5009004;28;20126;-61
2022/01/12 12:56:19;;;;;;;28.95;13.93;;;;;;;-1.09;66.59;95572.13;5009376;28;20052;-61
2022/01/12 12:58:54;;;;;;;27.58;13.75;;;;;;;-1.06;66.60;95573.44;5009490;28;20048;-62